sensor_id;sensor_type;location;lat;lon;timestamp;pressure;altitude;pressure_sealevel;temperature;humidity
55277;BME280;41136;51.478;-2.610;2023-04-20T00:05:14;101575.96;;;7.71;63.65
55277;BME280;41136;51.478;-2.610;2023-04-20T00:07:39;101574.97;;;8.39;61.55
55277;BME280;41136;51.478;-2.610;2023-04-20T00:10:06;101580.49;;;8.73;59.99
55277;BME280;41136;51.478;-2.610;2023-04-20T00:12:30;101577.83;;;8.75;59.21
55277;BME280;41136;51.478;-2.610;2023-04-20T00:14:55;101575.58;;;10.21;58.78
55277;BME280;41136;51.478;-2.610;2023-04-20T00:17:21;101573.07;;;8.93;59.50
55277;BME280;41136;51.478;-2.610;2023-04-20T00:19:46;101576.71;;;7.91;62.81
55277;BME280;41136;51.478;-2.610;2023-04-20T00:22:11;101575.97;;;8.13;63.80
55277;BME280;41136;51.478;-2.610;2023-04-20T00:24:37;101576.16;;;8.46;62.88
55277;BME280;41136;51.478;-2.610;2023-04-20T00:27:02;101577.79;;;7.87;65.01
55277;BME280;41136;51.478;-2.610;2023-04-20T00:29:28;101575.96;;;8.97;63.11
55277;BME280;41136;51.478;-2.610;2023-04-20T00:31:53;101579.68;;;6.89;65.22
55277;BME280;41136;51.478;-2.610;2023-04-20T00:34:19;101577.65;;;7.99;67.07
55277;BME280;41136;51.478;-2.610;2023-04-20T00:36:44;101578.56;;;8.09;65.50
55277;BME280;41136;51.478;-2.610;2023-04-20T00:39:09;101580.33;;;7.90;66.25
55277;BME280;41136;51.478;-2.610;2023-04-20T00:41:35;101578.38;;;8.19;65.97
55277;BME280;41136;51.478;-2.610;2023-04-20T00:44:00;101584.78;;;6.85;69.53
55277;BME280;41136;51.478;-2.610;2023-04-20T00:46:26;101586.27;;;7.60;68.34
55277;BME280;41136;51.478;-2.610;2023-04-20T00:48:52;101581.27;;;7.68;69.57
55277;BME280;41136;51.478;-2.610;2023-04-20T00:51:17;101577.03;;;8.38;67.98
55277;BME280;41136;51.478;-2.610;2023-04-20T00:53:42;101578.06;;;7.69;66.61
55277;BME280;41136;51.478;-2.610;2023-04-20T00:56:08;101571.32;;;8.14;67.56
55277;BME280;41136;51.478;-2.610;2023-04-20T00:58:32;101579.72;;;7.16;68.97
55277;BME280;41136;51.478;-2.610;2023-04-20T01:00:58;101573.56;;;8.02;68.64
55277;BME280;41136;51.478;-2.610;2023-04-20T01:03:24;101568.86;;;7.69;68.62
55277;BME280;41136;51.478;-2.610;2023-04-20T01:05:50;101564.68;;;8.26;67.60
55277;BME280;41136;51.478;-2.610;2023-04-20T01:08:15;101564.75;;;7.42;68.68
55277;BME280;41136;51.478;-2.610;2023-04-20T01:10:40;101560.56;;;7.35;67.79
55277;BME280;41136;51.478;-2.610;2023-04-20T01:13:06;101556.00;;;8.13;67.64
55277;BME280;41136;51.478;-2.610;2023-04-20T01:15:31;101552.66;;;7.68;67.18
55277;BME280;41136;51.478;-2.610;2023-04-20T01:17:57;101550.29;;;5.83;71.54
55277;BME280;41136;51.478;-2.610;2023-04-20T01:20:22;101542.79;;;6.87;71.75
55277;BME280;41136;51.478;-2.610;2023-04-20T01:22:49;101541.52;;;7.29;70.05
55277;BME280;41136;51.478;-2.610;2023-04-20T01:25:13;101536.86;;;6.51;71.05
55277;BME280;41136;51.478;-2.610;2023-04-20T01:27:38;101531.90;;;6.10;73.19
55277;BME280;41136;51.478;-2.610;2023-04-20T01:30:05;101525.96;;;6.19;73.87
55277;BME280;41136;51.478;-2.610;2023-04-20T01:32:29;101529.27;;;5.62;74.91
55277;BME280;41136;51.478;-2.610;2023-04-20T01:34:55;101525.06;;;5.03;78.46
55277;BME280;41136;51.478;-2.610;2023-04-20T01:37:20;101524.10;;;5.45;80.03
55277;BME280;41136;51.478;-2.610;2023-04-20T01:39:46;101518.04;;;4.64;83.32
55277;BME280;41136;51.478;-2.610;2023-04-20T01:42:11;101515.56;;;5.01;82.78
55277;BME280;41136;51.478;-2.610;2023-04-20T01:44:38;101508.56;;;5.85;80.41
55277;BME280;41136;51.478;-2.610;2023-04-20T01:47:02;101504.94;;;6.27;77.97
55277;BME280;41136;51.478;-2.610;2023-04-20T01:49:27;101504.85;;;6.04;79.17
55277;BME280;41136;51.478;-2.610;2023-04-20T01:51:53;101503.61;;;5.83;80.41
55277;BME280;41136;51.478;-2.610;2023-04-20T01:54:19;101501.76;;;6.15;80.30
55277;BME280;41136;51.478;-2.610;2023-04-20T01:56:44;101503.12;;;6.67;79.31
55277;BME280;41136;51.478;-2.610;2023-04-20T01:59:09;101505.17;;;5.34;81.30
55277;BME280;41136;51.478;-2.610;2023-04-20T02:01:35;101506.40;;;5.15;85.50
55277;BME280;41136;51.478;-2.610;2023-04-20T02:04:00;101505.19;;;5.84;83.72
55277;BME280;41136;51.478;-2.610;2023-04-20T02:06:26;101499.53;;;4.82;86.23
55277;BME280;41136;51.478;-2.610;2023-04-20T02:08:51;101497.02;;;5.40;86.90
55277;BME280;41136;51.478;-2.610;2023-04-20T02:11:17;101496.62;;;4.39;90.65
55277;BME280;41136;51.478;-2.610;2023-04-20T02:13:42;101493.69;;;4.77;91.34
55277;BME280;41136;51.478;-2.610;2023-04-20T02:16:08;101499.70;;;4.90;91.81
55277;BME280;41136;51.478;-2.610;2023-04-20T02:18:33;101498.50;;;4.95;92.74
55277;BME280;41136;51.478;-2.610;2023-04-20T02:20:59;101501.09;;;5.28;93.10
55277;BME280;41136;51.478;-2.610;2023-04-20T02:23:24;101501.54;;;6.08;92.27
55277;BME280;41136;51.478;-2.610;2023-04-20T02:25:50;101498.89;;;6.47;90.46
55277;BME280;41136;51.478;-2.610;2023-04-20T02:28:15;101504.70;;;5.03;92.45
55277;BME280;41136;51.478;-2.610;2023-04-20T02:30:40;101503.72;;;5.23;95.53
55277;BME280;41136;51.478;-2.610;2023-04-20T02:33:06;101502.15;;;5.72;93.63
55277;BME280;41136;51.478;-2.610;2023-04-20T02:35:31;101496.51;;;6.41;90.16
55277;BME280;41136;51.478;-2.610;2023-04-20T02:37:57;101499.33;;;5.82;92.66
55277;BME280;41136;51.478;-2.610;2023-04-20T02:40:22;101496.28;;;6.34;93.09
55277;BME280;41136;51.478;-2.610;2023-04-20T02:42:48;101494.35;;;6.82;90.23
55277;BME280;41136;51.478;-2.610;2023-04-20T02:45:14;101496.18;;;5.28;94.60
55277;BME280;41136;51.478;-2.610;2023-04-20T02:47:39;101489.09;;;4.82;99.88
55277;BME280;41136;51.478;-2.610;2023-04-20T02:50:06;101486.80;;;4.41;100.00
55277;BME280;41136;51.478;-2.610;2023-04-20T02:52:30;101487.72;;;5.50;99.00
55277;BME280;41136;51.478;-2.610;2023-04-20T02:54:55;101484.21;;;5.31;98.70
55277;BME280;41136;51.478;-2.610;2023-04-20T02:57:21;101482.17;;;5.49;98.54
55277;BME280;41136;51.478;-2.610;2023-04-20T02:59:46;101479.72;;;6.30;96.94
55277;BME280;41136;51.478;-2.610;2023-04-20T03:02:12;101482.86;;;5.01;100.00
55277;BME280;41136;51.478;-2.610;2023-04-20T03:04:37;101480.54;;;6.21;97.70
55277;BME280;41136;51.478;-2.610;2023-04-20T03:07:03;101473.72;;;5.55;99.31
55277;BME280;41136;51.478;-2.610;2023-04-20T03:12:46;101476.24;;;4.37;99.95
55277;BME280;41136;51.478;-2.610;2023-04-20T03:15:11;101468.20;;;5.92;97.84
55277;BME280;41136;51.478;-2.610;2023-04-20T03:17:37;101467.10;;;5.80;98.23
55277;BME280;41136;51.478;-2.610;2023-04-20T03:20:03;101463.99;;;4.72;100.00
55277;BME280;41136;51.478;-2.610;2023-04-20T03:22:27;101463.93;;;5.71;100.00
55277;BME280;41136;51.478;-2.610;2023-04-20T03:24:53;101466.11;;;5.47;100.00
55277;BME280;41136;51.478;-2.610;2023-04-20T03:27:18;101469.88;;;5.46;100.00
55277;BME280;41136;51.478;-2.610;2023-04-20T03:29:43;101463.90;;;6.10;100.00
55277;BME280;41136;51.478;-2.610;2023-04-20T03:32:09;101475.44;;;5.54;100.00
55277;BME280;41136;51.478;-2.610;2023-04-20T03:34:34;101475.91;;;4.37;100.00
55277;BME280;41136;51.478;-2.610;2023-04-20T03:36:59;101473.59;;;5.76;100.00
55277;BME280;41136;51.478;-2.610;2023-04-20T03:39:25;101474.23;;;5.72;100.00
55277;BME280;41136;51.478;-2.610;2023-04-20T03:41:50;101477.04;;;5.14;100.00
55277;BME280;41136;51.478;-2.610;2023-04-20T03:44:15;101470.57;;;5.84;100.00
55277;BME280;41136;51.478;-2.610;2023-04-20T03:46:41;101469.78;;;5.46;100.00
55277;BME280;41136;51.478;-2.610;2023-04-20T03:49:06;101467.28;;;5.06;100.00
55277;BME280;41136;51.478;-2.610;2023-04-20T03:51:32;101471.27;;;4.83;100.00
55277;BME280;41136;51.478;-2.610;2023-04-20T03:53:57;101469.87;;;4.78;100.00
55277;BME280;41136;51.478;-2.610;2023-04-20T03:56:22;101476.58;;;5.65;100.00
55277;BME280;41136;51.478;-2.610;2023-04-20T03:58:47;101475.13;;;5.25;100.00
55277;BME280;41136;51.478;-2.610;2023-04-20T04:01:13;101478.29;;;4.88;100.00
55277;BME280;41136;51.478;-2.610;2023-04-20T04:03:38;101480.87;;;5.02;100.00
55277;BME280;41136;51.478;-2.610;2023-04-20T04:06:04;101484.41;;;4.72;100.00
55277;BME280;41136;51.478;-2.610;2023-04-20T04:08:29;101483.85;;;4.49;100.00
55277;BME280;41136;51.478;-2.610;2023-04-20T04:10:54;101479.99;;;4.88;100.00
55277;BME280;41136;51.478;-2.610;2023-04-20T04:13:20;101484.64;;;5.22;100.00
55277;BME280;41136;51.478;-2.610;2023-04-20T04:15:45;101481.59;;;5.74;100.00
55277;BME280;41136;51.478;-2.610;2023-04-20T04:18:10;101481.60;;;6.35;100.00
55277;BME280;41136;51.478;-2.610;2023-04-20T04:20:35;101479.13;;;6.51;100.00
55277;BME280;41136;51.478;-2.610;2023-04-20T04:23:01;101477.28;;;5.47;100.00
55277;BME280;41136;51.478;-2.610;2023-04-20T04:25:26;101478.72;;;5.90;100.00
55277;BME280;41136;51.478;-2.610;2023-04-20T04:27:52;101485.08;;;5.67;100.00
55277;BME280;41136;51.478;-2.610;2023-04-20T04:30:17;101481.37;;;5.96;100.00
55277;BME280;41136;51.478;-2.610;2023-04-20T04:32:43;101487.36;;;5.81;100.00
55277;BME280;41136;51.478;-2.610;2023-04-20T04:35:08;101481.44;;;6.73;100.00
55277;BME280;41136;51.478;-2.610;2023-04-20T04:37:34;101485.54;;;6.18;100.00
55277;BME280;41136;51.478;-2.610;2023-04-20T04:39:59;101488.06;;;6.85;99.99
55277;BME280;41136;51.478;-2.610;2023-04-20T04:42:24;101488.13;;;6.09;100.00
55277;BME280;41136;51.478;-2.610;2023-04-20T04:44:50;101494.25;;;4.70;100.00
55277;BME280;41136;51.478;-2.610;2023-04-20T04:47:15;101487.51;;;6.27;100.00
55277;BME280;41136;51.478;-2.610;2023-04-20T04:49:41;101486.08;;;6.08;100.00
55277;BME280;41136;51.478;-2.610;2023-04-20T04:52:07;101489.66;;;5.24;100.00
55277;BME280;41136;51.478;-2.610;2023-04-20T04:54:32;101487.76;;;5.61;100.00
55277;BME280;41136;51.478;-2.610;2023-04-20T04:56:57;101482.40;;;5.46;100.00
55277;BME280;41136;51.478;-2.610;2023-04-20T04:59:22;101489.46;;;5.18;100.00
55277;BME280;41136;51.478;-2.610;2023-04-20T05:01:48;101486.82;;;4.97;100.00
55277;BME280;41136;51.478;-2.610;2023-04-20T05:04:13;101486.55;;;3.53;100.00
55277;BME280;41136;51.478;-2.610;2023-04-20T05:06:39;101488.01;;;5.12;100.00
55277;BME280;41136;51.478;-2.610;2023-04-20T05:09:04;101487.44;;;5.09;100.00
55277;BME280;41136;51.478;-2.610;2023-04-20T05:11:29;101483.71;;;5.70;100.00
55277;BME280;41136;51.478;-2.610;2023-04-20T05:13:55;101488.90;;;4.59;100.00
55277;BME280;41136;51.478;-2.610;2023-04-20T05:16:20;101491.90;;;4.83;100.00
55277;BME280;41136;51.478;-2.610;2023-04-20T05:18:45;101493.98;;;5.57;100.00
55277;BME280;41136;51.478;-2.610;2023-04-20T05:21:11;101490.03;;;6.07;100.00
55277;BME280;41136;51.478;-2.610;2023-04-20T05:23:36;101490.63;;;5.42;100.00
55277;BME280;41136;51.478;-2.610;2023-04-20T05:26:02;101490.91;;;5.53;100.00
55277;BME280;41136;51.478;-2.610;2023-04-20T05:28:27;101488.86;;;4.77;100.00
55277;BME280;41136;51.478;-2.610;2023-04-20T05:30:52;101484.00;;;6.03;100.00
55277;BME280;41136;51.478;-2.610;2023-04-20T05:33:18;101482.85;;;5.59;100.00
55277;BME280;41136;51.478;-2.610;2023-04-20T05:35:43;101481.92;;;5.85;100.00
55277;BME280;41136;51.478;-2.610;2023-04-20T05:38:08;101484.04;;;5.20;100.00
55277;BME280;41136;51.478;-2.610;2023-04-20T05:40:33;101484.57;;;5.16;100.00
55277;BME280;41136;51.478;-2.610;2023-04-20T05:42:59;101485.61;;;5.84;100.00
55277;BME280;41136;51.478;-2.610;2023-04-20T05:45:25;101481.79;;;6.30;100.00
55277;BME280;41136;51.478;-2.610;2023-04-20T05:47:51;101486.00;;;5.17;100.00
55277;BME280;41136;51.478;-2.610;2023-04-20T05:50:15;101487.00;;;5.16;100.00
55277;BME280;41136;51.478;-2.610;2023-04-20T05:52:41;101489.40;;;4.36;100.00
55277;BME280;41136;51.478;-2.610;2023-04-20T05:55:06;101484.53;;;4.95;100.00
55277;BME280;41136;51.478;-2.610;2023-04-20T05:57:31;101483.77;;;5.47;100.00
55277;BME280;41136;51.478;-2.610;2023-04-20T05:59:57;101484.64;;;4.03;100.00
55277;BME280;41136;51.478;-2.610;2023-04-20T06:02:22;101478.58;;;4.75;100.00
55277;BME280;41136;51.478;-2.610;2023-04-20T06:04:47;101478.30;;;3.93;100.00
55277;BME280;41136;51.478;-2.610;2023-04-20T06:07:13;101481.17;;;4.82;100.00
55277;BME280;41136;51.478;-2.610;2023-04-20T06:09:39;101479.25;;;3.97;100.00
55277;BME280;41136;51.478;-2.610;2023-04-20T06:12:05;101476.14;;;4.32;100.00
55277;BME280;41136;51.478;-2.610;2023-04-20T06:14:30;101471.00;;;4.65;100.00
55277;BME280;41136;51.478;-2.610;2023-04-20T06:16:55;101473.94;;;4.14;100.00
55277;BME280;41136;51.478;-2.610;2023-04-20T06:19:20;101475.31;;;3.81;100.00
55277;BME280;41136;51.478;-2.610;2023-04-20T06:21:46;101475.70;;;4.65;100.00
55277;BME280;41136;51.478;-2.610;2023-04-20T06:24:11;101476.41;;;3.66;100.00
55277;BME280;41136;51.478;-2.610;2023-04-20T06:26:36;101469.61;;;4.53;100.00
55277;BME280;41136;51.478;-2.610;2023-04-20T06:29:02;101467.39;;;4.69;100.00
55277;BME280;41136;51.478;-2.610;2023-04-20T06:31:27;101467.79;;;4.54;100.00
55277;BME280;41136;51.478;-2.610;2023-04-20T06:33:52;101464.47;;;4.25;100.00
55277;BME280;41136;51.478;-2.610;2023-04-20T06:36:17;101461.25;;;5.18;100.00
55277;BME280;41136;51.478;-2.610;2023-04-20T06:38:43;101460.97;;;5.18;100.00
55277;BME280;41136;51.478;-2.610;2023-04-20T06:41:08;101454.43;;;4.65;100.00
55277;BME280;41136;51.478;-2.610;2023-04-20T06:43:34;101462.74;;;5.48;100.00
55277;BME280;41136;51.478;-2.610;2023-04-20T06:45:59;101458.43;;;5.17;100.00
55277;BME280;41136;51.478;-2.610;2023-04-20T06:48:25;101457.39;;;5.77;100.00
55277;BME280;41136;51.478;-2.610;2023-04-20T06:50:50;101460.82;;;5.49;100.00
55277;BME280;41136;51.478;-2.610;2023-04-20T06:53:16;101459.93;;;5.25;100.00
55277;BME280;41136;51.478;-2.610;2023-04-20T06:55:41;101461.63;;;5.05;100.00
55277;BME280;41136;51.478;-2.610;2023-04-20T06:58:07;101460.44;;;5.47;100.00
55277;BME280;41136;51.478;-2.610;2023-04-20T07:00:32;101465.17;;;5.36;100.00
55277;BME280;41136;51.478;-2.610;2023-04-20T07:02:58;101465.36;;;5.51;100.00
55277;BME280;41136;51.478;-2.610;2023-04-20T07:05:24;101466.10;;;6.02;100.00
55277;BME280;41136;51.478;-2.610;2023-04-20T07:07:50;101459.81;;;6.48;100.00
55277;BME280;41136;51.478;-2.610;2023-04-20T07:10:15;101467.87;;;6.64;100.00
55277;BME280;41136;51.478;-2.610;2023-04-20T07:12:41;101467.92;;;5.25;100.00
55277;BME280;41136;51.478;-2.610;2023-04-20T07:15:07;101466.68;;;5.82;100.00
55277;BME280;41136;51.478;-2.610;2023-04-20T07:17:31;101463.07;;;6.82;100.00
55277;BME280;41136;51.478;-2.610;2023-04-20T07:19:57;101470.29;;;6.14;100.00
55277;BME280;41136;51.478;-2.610;2023-04-20T07:22:22;101464.23;;;7.44;100.00
55277;BME280;41136;51.478;-2.610;2023-04-20T07:24:47;101478.02;;;6.81;100.00
55277;BME280;41136;51.478;-2.610;2023-04-20T07:27:13;101468.69;;;6.95;100.00
55277;BME280;41136;51.478;-2.610;2023-04-20T07:29:38;101468.13;;;6.50;100.00
55277;BME280;41136;51.478;-2.610;2023-04-20T07:32:04;101470.75;;;6.84;100.00
55277;BME280;41136;51.478;-2.610;2023-04-20T07:34:29;101470.00;;;6.97;100.00
55277;BME280;41136;51.478;-2.610;2023-04-20T07:36:55;101471.14;;;7.88;100.00
55277;BME280;41136;51.478;-2.610;2023-04-20T07:39:21;101471.78;;;7.93;100.00
55277;BME280;41136;51.478;-2.610;2023-04-20T07:41:46;101472.11;;;7.58;100.00
55277;BME280;41136;51.478;-2.610;2023-04-20T07:44:12;101469.35;;;8.91;100.00
55277;BME280;41136;51.478;-2.610;2023-04-20T07:46:37;101469.16;;;8.05;100.00
55277;BME280;41136;51.478;-2.610;2023-04-20T07:49:02;101469.00;;;8.14;100.00
55277;BME280;41136;51.478;-2.610;2023-04-20T07:51:27;101476.16;;;8.11;100.00
55277;BME280;41136;51.478;-2.610;2023-04-20T07:53:53;101477.71;;;8.20;100.00
55277;BME280;41136;51.478;-2.610;2023-04-20T07:56:18;101479.60;;;8.04;99.55
55277;BME280;41136;51.478;-2.610;2023-04-20T07:58:43;101481.06;;;8.48;99.98
55277;BME280;41136;51.478;-2.610;2023-04-20T08:01:09;101480.55;;;8.26;99.15
55277;BME280;41136;51.478;-2.610;2023-04-20T08:03:34;101483.01;;;8.41;99.67
55277;BME280;41136;51.478;-2.610;2023-04-20T08:05:59;101477.49;;;8.17;100.00
55277;BME280;41136;51.478;-2.610;2023-04-20T08:08:25;101477.31;;;8.17;99.04
55277;BME280;41136;51.478;-2.610;2023-04-20T08:10:50;101471.46;;;8.60;100.00
55277;BME280;41136;51.478;-2.610;2023-04-20T08:13:16;101466.58;;;8.70;98.20
55277;BME280;41136;51.478;-2.610;2023-04-20T08:15:41;101463.09;;;8.74;95.76
55277;BME280;41136;51.478;-2.610;2023-04-20T08:18:06;101465.14;;;10.26;91.47
55277;BME280;41136;51.478;-2.610;2023-04-20T08:20:32;101460.13;;;11.00;88.20
55277;BME280;41136;51.478;-2.610;2023-04-20T08:22:57;101458.58;;;11.04;84.96
55277;BME280;41136;51.478;-2.610;2023-04-20T08:25:22;101467.47;;;10.79;83.68
55277;BME280;41136;51.478;-2.610;2023-04-20T08:27:47;101463.00;;;11.38;82.37
55277;BME280;41136;51.478;-2.610;2023-04-20T08:30:13;101463.59;;;11.67;80.48
55277;BME280;41136;51.478;-2.610;2023-04-20T08:32:38;101461.82;;;11.84;78.77
55277;BME280;41136;51.478;-2.610;2023-04-20T08:35:04;101462.90;;;12.14;76.51
55277;BME280;41136;51.478;-2.610;2023-04-20T08:37:29;101463.88;;;11.78;76.82
55277;BME280;41136;51.478;-2.610;2023-04-20T08:39:54;101462.49;;;12.29;75.83
55277;BME280;41136;51.478;-2.610;2023-04-20T08:42:19;101460.22;;;12.46;71.68
55277;BME280;41136;51.478;-2.610;2023-04-20T08:44:45;101460.59;;;13.41;69.90
55277;BME280;41136;51.478;-2.610;2023-04-20T08:47:11;101459.56;;;12.82;68.66
55277;BME280;41136;51.478;-2.610;2023-04-20T08:49:35;101465.63;;;12.65;67.89
55277;BME280;41136;51.478;-2.610;2023-04-20T08:52:00;101462.69;;;12.44;67.36
55277;BME280;41136;51.478;-2.610;2023-04-20T08:54:25;101459.61;;;13.12;69.28
55277;BME280;41136;51.478;-2.610;2023-04-20T08:56:50;101458.03;;;13.02;66.11
55277;BME280;41136;51.478;-2.610;2023-04-20T08:59:16;101455.00;;;12.86;66.42
55277;BME280;41136;51.478;-2.610;2023-04-20T09:01:42;101455.58;;;13.09;64.92
55277;BME280;41136;51.478;-2.610;2023-04-20T09:04:15;101455.23;;;12.51;65.07
55277;BME280;41136;51.478;-2.610;2023-04-20T09:06:33;101454.81;;;12.92;65.64
55277;BME280;41136;51.478;-2.610;2023-04-20T09:08:57;101449.79;;;12.89;64.53
55277;BME280;41136;51.478;-2.610;2023-04-20T09:11:24;101451.06;;;11.80;64.78
55277;BME280;41136;51.478;-2.610;2023-04-20T09:13:57;101450.47;;;12.63;64.05
55277;BME280;41136;51.478;-2.610;2023-04-20T09:16:14;101443.30;;;12.35;64.94
55277;BME280;41136;51.478;-2.610;2023-04-20T09:18:39;101440.37;;;12.70;64.43
55277;BME280;41136;51.478;-2.610;2023-04-20T09:21:08;101435.43;;;13.01;64.54
55277;BME280;41136;51.478;-2.610;2023-04-20T09:23:30;101438.37;;;12.40;64.77
55277;BME280;41136;51.478;-2.610;2023-04-20T09:25:55;101436.04;;;12.70;64.44
55277;BME280;41136;51.478;-2.610;2023-04-20T09:28:20;101435.83;;;12.67;63.71
55277;BME280;41136;51.478;-2.610;2023-04-20T09:30:47;101436.34;;;12.63;62.70
55277;BME280;41136;51.478;-2.610;2023-04-20T09:33:11;101425.42;;;12.79;61.71
55277;BME280;41136;51.478;-2.610;2023-04-20T09:35:36;101425.13;;;13.13;62.16
55277;BME280;41136;51.478;-2.610;2023-04-20T09:38:02;101421.40;;;13.33;62.07
55277;BME280;41136;51.478;-2.610;2023-04-20T09:40:27;101421.56;;;13.46;61.72
55277;BME280;41136;51.478;-2.610;2023-04-20T09:42:53;101418.56;;;13.11;60.56
55277;BME280;41136;51.478;-2.610;2023-04-20T09:45:17;101410.47;;;13.63;59.15
55277;BME280;41136;51.478;-2.610;2023-04-20T09:47:43;101412.85;;;14.06;56.64
55277;BME280;41136;51.478;-2.610;2023-04-20T09:50:10;101416.01;;;13.39;55.69
55277;BME280;41136;51.478;-2.610;2023-04-20T09:52:36;101410.95;;;13.77;53.40
55277;BME280;41136;51.478;-2.610;2023-04-20T09:54:58;101402.88;;;13.14;54.27
55277;BME280;41136;51.478;-2.610;2023-04-20T09:57:24;101408.51;;;12.99;52.10
55277;BME280;41136;51.478;-2.610;2023-04-20T09:59:50;101403.05;;;13.19;51.27
55277;BME280;41136;51.478;-2.610;2023-04-20T10:02:14;101397.12;;;12.56;52.60
55277;BME280;41136;51.478;-2.610;2023-04-20T10:07:05;101401.56;;;13.27;49.39
55277;BME280;41136;51.478;-2.610;2023-04-20T10:09:31;101399.87;;;13.49;48.87
55277;BME280;41136;51.478;-2.610;2023-04-20T10:12:04;101397.24;;;13.72;50.36
55277;BME280;41136;51.478;-2.610;2023-04-20T10:14:23;101395.44;;;13.69;49.30
55277;BME280;41136;51.478;-2.610;2023-04-20T10:19:12;101391.18;;;13.44;47.06
55277;BME280;41136;51.478;-2.610;2023-04-20T10:21:44;101391.52;;;13.65;48.24
55277;BME280;41136;51.478;-2.610;2023-04-20T10:24:03;101396.10;;;14.10;45.75
55277;BME280;41136;51.478;-2.610;2023-04-20T10:26:36;101394.82;;;14.09;45.33
55277;BME280;41136;51.478;-2.610;2023-04-20T10:28:53;101387.29;;;13.60;44.19
55277;BME280;41136;51.478;-2.610;2023-04-20T10:31:19;101391.85;;;13.98;44.44
55277;BME280;41136;51.478;-2.610;2023-04-20T10:33:49;101386.59;;;13.65;45.96
55277;BME280;41136;51.478;-2.610;2023-04-20T10:38:35;101385.26;;;13.50;43.61
55277;BME280;41136;51.478;-2.610;2023-04-20T10:41:05;101377.27;;;13.14;43.43
55277;BME280;41136;51.478;-2.610;2023-04-20T10:43:25;101381.79;;;13.60;43.95
55277;BME280;41136;51.478;-2.610;2023-04-20T10:45:50;101369.85;;;13.11;44.93
55277;BME280;41136;51.478;-2.610;2023-04-20T10:48:16;101369.84;;;13.45;44.71
55277;BME280;41136;51.478;-2.610;2023-04-20T10:50:41;101376.29;;;13.15;44.58
55277;BME280;41136;51.478;-2.610;2023-04-20T10:55:31;101371.46;;;12.74;44.44
55277;BME280;41136;51.478;-2.610;2023-04-20T10:57:57;101374.88;;;12.91;45.51
55277;BME280;41136;51.478;-2.610;2023-04-20T11:00:24;101364.65;;;13.10;44.93
55277;BME280;41136;51.478;-2.610;2023-04-20T11:02:48;101362.47;;;13.18;43.50
55277;BME280;41136;51.478;-2.610;2023-04-20T11:05:13;101364.27;;;13.60;42.86
55277;BME280;41136;51.478;-2.610;2023-04-20T11:07:47;101363.20;;;13.54;41.23
55277;BME280;41136;51.478;-2.610;2023-04-20T11:10:04;101362.50;;;13.37;42.00
55277;BME280;41136;51.478;-2.610;2023-04-20T11:12:37;101357.65;;;13.23;42.00
55277;BME280;41136;51.478;-2.610;2023-04-20T11:14:55;101354.22;;;13.65;41.35
55277;BME280;41136;51.478;-2.610;2023-04-20T11:17:19;101342.55;;;12.36;41.77
55277;BME280;41136;51.478;-2.610;2023-04-20T11:19:44;101350.64;;;13.25;40.88
55277;BME280;41136;51.478;-2.610;2023-04-20T11:24:35;101346.29;;;13.09;40.40
55277;BME280;41136;51.478;-2.610;2023-04-20T11:27:01;101344.63;;;13.31;40.42
55277;BME280;41136;51.478;-2.610;2023-04-20T11:29:28;101340.56;;;13.43;40.87
55277;BME280;41136;51.478;-2.610;2023-04-20T11:31:50;101344.01;;;13.39;41.60
55277;BME280;41136;51.478;-2.610;2023-04-20T11:34:16;101340.20;;;13.41;40.61
55277;BME280;41136;51.478;-2.610;2023-04-20T11:36:40;101334.29;;;13.65;41.66
55277;BME280;41136;51.478;-2.610;2023-04-20T11:39:07;101323.88;;;13.45;41.88
55277;BME280;41136;51.478;-2.610;2023-04-20T11:41:31;101324.97;;;13.70;41.18
55277;BME280;41136;51.478;-2.610;2023-04-20T11:43:56;101309.59;;;13.95;41.04
55277;BME280;41136;51.478;-2.610;2023-04-20T11:46:22;101313.54;;;13.19;40.07
55277;BME280;41136;51.478;-2.610;2023-04-20T11:48:47;101312.80;;;12.85;39.21
55277;BME280;41136;51.478;-2.610;2023-04-20T11:51:13;101300.91;;;13.50;39.22
55277;BME280;41136;51.478;-2.610;2023-04-20T11:53:38;101307.34;;;13.64;39.44
55277;BME280;41136;51.478;-2.610;2023-04-20T11:56:04;101296.66;;;13.08;40.02
55277;BME280;41136;51.478;-2.610;2023-04-20T11:58:28;101292.27;;;13.30;38.77
55277;BME280;41136;51.478;-2.610;2023-04-20T12:00:54;101296.90;;;13.39;38.34
55277;BME280;41136;51.478;-2.610;2023-04-20T12:03:19;101291.02;;;13.50;38.61
55277;BME280;41136;51.478;-2.610;2023-04-20T12:05:45;101290.19;;;13.57;38.83
55277;BME280;41136;51.478;-2.610;2023-04-20T12:08:09;101294.60;;;13.69;39.16
55277;BME280;41136;51.478;-2.610;2023-04-20T12:10:35;101286.51;;;14.36;39.21
55277;BME280;41136;51.478;-2.610;2023-04-20T12:13:00;101288.15;;;13.79;36.94
55277;BME280;41136;51.478;-2.610;2023-04-20T12:15:25;101287.43;;;13.71;36.89
55277;BME280;41136;51.478;-2.610;2023-04-20T12:17:50;101278.06;;;13.28;37.04
55277;BME280;41136;51.478;-2.610;2023-04-20T12:20:16;101280.51;;;13.82;36.96
55277;BME280;41136;51.478;-2.610;2023-04-20T12:22:41;101277.68;;;13.84;36.70
55277;BME280;41136;51.478;-2.610;2023-04-20T12:25:07;101276.09;;;14.17;36.81
55277;BME280;41136;51.478;-2.610;2023-04-20T12:27:31;101284.46;;;13.74;37.89
55277;BME280;41136;51.478;-2.610;2023-04-20T12:29:57;101281.89;;;14.22;37.62
55277;BME280;41136;51.478;-2.610;2023-04-20T12:32:22;101275.15;;;14.20;38.20
55277;BME280;41136;51.478;-2.610;2023-04-20T12:34:47;101269.88;;;13.86;38.98
55277;BME280;41136;51.478;-2.610;2023-04-20T12:37:13;101271.01;;;13.71;39.68
55277;BME280;41136;51.478;-2.610;2023-04-20T12:39:38;101269.28;;;14.44;39.99
55277;BME280;41136;51.478;-2.610;2023-04-20T12:42:03;101274.62;;;14.41;39.46
55277;BME280;41136;51.478;-2.610;2023-04-20T12:44:28;101266.51;;;14.69;39.04
55277;BME280;41136;51.478;-2.610;2023-04-20T12:46:53;101269.68;;;14.44;38.98
55277;BME280;41136;51.478;-2.610;2023-04-20T12:49:18;101271.06;;;14.46;39.84
55277;BME280;41136;51.478;-2.610;2023-04-20T12:51:44;101268.72;;;14.22;39.75